createdAt,value
2018-09-25T00:02:23.087Z,99468.73
2018-09-25T00:04:56.334Z,99464.50
2018-09-25T00:07:29.521Z,99463.97
2018-09-25T00:10:02.757Z,99458.88
2018-09-25T00:12:37.272Z,99459.32
2018-09-25T00:15:10.793Z,99467.59
2018-09-25T00:17:46.287Z,99465.56
2018-09-25T00:20:19.768Z,99464.84
2018-09-25T00:22:52.944Z,99466.56
2018-09-25T00:25:27.801Z,99473.88
2018-09-25T00:28:01.102Z,99470.45
2018-09-25T00:30:34.313Z,99472.18
2018-09-25T00:33:07.648Z,99476.31
2018-09-25T00:35:40.912Z,99471.45
2018-09-25T00:38:14.304Z,99472.72
2018-09-25T00:40:47.486Z,99470.58
2018-09-25T00:43:20.792Z,99477.52
2018-09-25T00:45:53.925Z,99480.04
2018-09-25T00:48:27.159Z,99484.94
2018-09-25T00:51:00.379Z,99485.55
2018-09-25T00:53:33.553Z,99489.55
2018-09-25T00:56:06.759Z,99493.36
2018-09-25T00:58:40.104Z,99495.71
2018-09-25T01:01:13.312Z,99490.41
2018-09-25T01:03:46.498Z,99495.34
2018-09-25T01:06:19.744Z,99504.79
2018-09-25T01:08:53.068Z,99500.84
2018-09-25T01:11:26.401Z,99493.16
2018-09-25T01:13:59.625Z,99496.18
2018-09-25T01:16:32.918Z,99500.13
2018-09-25T01:19:06.210Z,99505.45
2018-09-25T01:21:39.413Z,99495.39
2018-09-25T01:24:12.657Z,99499.13
2018-09-25T01:26:45.824Z,99500.60
2018-09-25T01:29:19.009Z,99501.81
2018-09-25T01:31:52.152Z,99498.94
2018-09-25T01:34:25.337Z,99506.77
2018-09-25T01:36:58.605Z,99501.65
2018-09-25T01:39:31.979Z,99498.53
2018-09-25T01:42:05.179Z,99503.81
2018-09-25T01:44:38.468Z,99503.52
2018-09-25T01:47:11.909Z,99504.13
2018-09-25T01:49:45.153Z,99510.14
2018-09-25T01:52:18.953Z,99508.83
2018-09-25T01:54:52.121Z,99516.12
2018-09-25T01:57:26.398Z,99513.70
2018-09-25T01:59:59.642Z,99520.14
2018-09-25T02:02:32.829Z,99515.57
2018-09-25T02:05:06.114Z,99516.10
2018-09-25T02:07:39.257Z,99513.00
2018-09-25T02:10:12.446Z,99515.72
2018-09-25T02:12:45.676Z,99514.30
2018-09-25T02:15:18.918Z,99519.22
2018-09-25T02:17:52.062Z,99525.26
2018-09-25T02:20:25.382Z,99530.09
2018-09-25T02:22:58.639Z,99532.05
2018-09-25T02:25:31.902Z,99535.34
2018-09-25T02:28:05.072Z,99536.27
2018-09-25T02:30:38.339Z,99537.25
2018-09-25T02:33:11.796Z,99542.39
2018-09-25T02:35:45.002Z,99549.38
2018-09-25T02:38:18.319Z,99550.85
2018-09-25T02:40:51.546Z,99546.86
2018-09-25T02:43:24.888Z,99548.32
2018-09-25T02:45:58.065Z,99556.82
2018-09-25T02:48:31.282Z,99556.86
2018-09-25T02:51:04.517Z,99560.98
2018-09-25T02:53:37.949Z,99565.52
2018-09-25T02:56:11.528Z,99566.37
2018-09-25T02:58:44.784Z,99578.49
2018-09-25T03:01:18.009Z,99580.42
2018-09-25T03:03:51.150Z,99580.02
2018-09-25T03:06:24.457Z,99577.42
2018-09-25T03:08:57.650Z,99581.55
2018-09-25T03:11:30.900Z,99585.45
2018-09-25T03:14:04.110Z,99583.36
2018-09-25T03:16:37.411Z,99591.44
2018-09-25T03:19:10.876Z,99585.34
2018-09-25T03:21:44.056Z,99586.56
2018-09-25T03:24:17.230Z,99585.53
2018-09-25T03:26:50.506Z,99586.52
2018-09-25T03:29:23.693Z,99590.14
2018-09-25T03:31:56.946Z,99591.17
2018-09-25T03:34:30.167Z,99594.87
2018-09-25T03:37:03.404Z,99600.18
2018-09-25T03:39:36.603Z,99596.28
2018-09-25T03:42:09.858Z,99592.31
2018-09-25T03:44:43.139Z,99597.11
2018-09-25T03:47:16.370Z,99602.84
2018-09-25T03:49:49.630Z,99604.16
2018-09-25T03:52:22.898Z,99605.17
2018-09-25T03:54:56.117Z,99599.70
2018-09-25T03:57:29.330Z,99599.08
2018-09-25T04:00:02.509Z,99601.23
2018-09-25T04:02:35.726Z,99599.30
2018-09-25T04:05:09.149Z,99600.06
2018-09-25T04:07:42.443Z,99611.23
2018-09-25T04:10:15.564Z,99609.86
2018-09-25T04:12:48.756Z,99611.27
2018-09-25T04:15:21.970Z,99615.63
2018-09-25T04:17:55.224Z,99614.45
2018-09-25T04:20:28.429Z,99615.44
2018-09-25T04:23:01.633Z,99615.44
2018-09-25T04:25:34.808Z,99623.47
2018-09-25T04:28:08.072Z,99627.86
2018-09-25T04:30:41.237Z,99627.08
2018-09-25T04:33:14.511Z,99637.70
2018-09-25T04:35:47.668Z,99636.13
2018-09-25T04:38:21.027Z,99642.41
2018-09-25T04:40:54.268Z,99641.63
2018-09-25T04:43:27.550Z,99652.42
2018-09-25T04:46:00.764Z,99648.52
2018-09-25T04:48:34.013Z,99650.48
2018-09-25T04:51:07.147Z,99651.02
2018-09-25T04:53:40.405Z,99648.31
2018-09-25T04:56:13.525Z,99654.22
2018-09-25T04:58:46.813Z,99652.90
2018-09-25T05:01:20.291Z,99654.64
2018-09-25T05:03:53.549Z,99656.22
2018-09-25T05:06:26.987Z,99661.33
2018-09-25T05:09:00.512Z,99664.28
2018-09-25T05:11:33.984Z,99657.98
2018-09-25T05:14:07.234Z,99667.95
2018-09-25T05:16:40.745Z,99668.94
2018-09-25T05:19:14.055Z,99671.72
2018-09-25T05:21:48.037Z,99667.56
2018-09-25T05:24:21.363Z,99672.81
2018-09-25T05:26:54.830Z,99676.64
2018-09-25T05:29:28.399Z,99680.55
2018-09-25T05:32:01.841Z,99684.03
2018-09-25T05:34:35.251Z,99682.59
2018-09-25T05:37:08.523Z,99686.26
2018-09-25T05:39:41.955Z,99691.30
2018-09-25T05:42:15.316Z,99690.59
2018-09-25T05:44:48.852Z,99700.52
2018-09-25T05:47:22.299Z,99701.49
2018-09-25T05:49:55.760Z,99703.78
2018-09-25T05:52:29.073Z,99707.23
2018-09-25T05:55:02.286Z,99707.83
2018-09-25T05:57:35.734Z,99712.75
2018-09-25T06:00:09.749Z,99708.52
2018-09-25T06:02:43.093Z,99714.49
2018-09-25T06:05:16.625Z,99714.69
2018-09-25T06:07:50.077Z,99718.39
2018-09-25T06:10:23.685Z,99725.91
2018-09-25T06:12:57.301Z,99724.14
2018-09-25T06:15:30.779Z,99733.44
2018-09-25T06:18:04.158Z,99732.81
2018-09-25T06:20:37.659Z,99738.48
2018-09-25T06:23:11.032Z,99734.29
2018-09-25T06:25:44.660Z,99741.58
2018-09-25T06:28:17.906Z,99747.25
2018-09-25T06:30:51.797Z,99749.36
2018-09-25T06:33:25.036Z,99750.98
2018-09-25T06:35:58.631Z,99757.28
2018-09-25T06:38:32.384Z,99763.91
2018-09-25T06:41:05.805Z,99768.42
2018-09-25T06:43:39.485Z,99768.66
2018-09-25T06:46:13.397Z,99769.86
2018-09-25T06:48:47.401Z,99780.26
2018-09-25T06:51:20.788Z,99775.05
2018-09-25T06:53:54.614Z,99786.39
2018-09-25T06:56:27.892Z,99789.34
2018-09-25T06:59:01.353Z,99797.50
2018-09-25T07:01:34.880Z,99800.72
2018-09-25T07:04:08.192Z,99802.95
2018-09-25T07:06:41.551Z,99806.02
2018-09-25T07:09:15.161Z,99802.31
2018-09-25T07:11:48.705Z,99813.23
2018-09-25T07:14:22.146Z,99807.81
2018-09-25T07:16:55.586Z,99809.56
2018-09-25T07:19:29.150Z,99815.20
2018-09-25T07:22:02.665Z,99813.91
2018-09-25T07:24:36.200Z,99811.37
2018-09-25T07:27:09.485Z,99814.66
2018-09-25T07:29:42.785Z,99817.83
2018-09-25T07:32:16.272Z,99822.70
2018-09-25T07:34:49.566Z,99831.97
2018-09-25T07:37:22.789Z,99829.55
2018-09-25T07:39:56.282Z,99834.70
2018-09-25T07:42:30.065Z,99836.23
2018-09-25T07:45:03.590Z,99831.84
2018-09-25T07:47:37.150Z,99837.36
2018-09-25T07:50:10.982Z,99838.50
2018-09-25T07:52:44.534Z,99842.45
2018-09-25T07:55:18.104Z,99848.19
2018-09-25T07:57:51.400Z,99843.54
2018-09-25T08:00:24.908Z,99853.76
2018-09-25T08:02:58.256Z,99854.13
2018-09-25T08:05:31.477Z,99861.73
2018-09-25T08:08:04.803Z,99857.33
2018-09-25T08:10:38.106Z,99858.56
2018-09-25T08:13:11.619Z,99866.67
2018-09-25T08:15:45.161Z,99863.33
2018-09-25T08:18:18.513Z,99870.14
2018-09-25T08:20:52.136Z,99867.96
2018-09-25T08:23:25.828Z,99862.38
2018-09-25T08:25:59.077Z,99871.77
2018-09-25T08:28:32.325Z,99871.30
2018-09-25T08:31:05.715Z,99866.09
2018-09-25T08:33:38.985Z,99869.85
2018-09-25T08:36:12.426Z,99866.20
2018-09-25T08:38:45.988Z,99872.98
2018-09-25T08:41:19.414Z,99882.20
2018-09-25T08:43:52.717Z,99881.52
2018-09-25T08:46:25.866Z,99883.53
2018-09-25T08:48:59.133Z,99889.95
2018-09-25T08:51:32.824Z,99881.97
2018-09-25T08:54:06.328Z,99881.23
2018-09-25T08:56:39.492Z,99886.87
2018-09-25T08:59:12.816Z,99888.77
2018-09-25T09:01:46.177Z,99885.98
2018-09-25T09:04:19.756Z,99886.05
2018-09-25T09:06:53.438Z,99890.73
2018-09-25T09:09:27.062Z,99890.47
2018-09-25T09:12:00.618Z,99888.92
2018-09-25T09:14:33.801Z,99892.87
2018-09-25T09:17:07.256Z,99898.53
2018-09-25T09:19:40.766Z,99902.70
2018-09-25T09:22:14.268Z,99896.36
2018-09-25T09:24:47.940Z,99900.64
2018-09-25T09:27:21.574Z,99897.39
2018-09-25T09:29:55.193Z,99901.31
2018-09-25T09:32:28.639Z,99903.73
2018-09-25T09:35:02.197Z,99901.33
2018-09-25T09:37:35.481Z,99897.72
2018-09-25T09:40:08.825Z,99898.61
2018-09-25T09:42:42.237Z,99896.83
2018-09-25T09:45:15.861Z,99902.70
2018-09-25T09:47:49.367Z,99896.77
2018-09-25T09:50:23.089Z,99904.00
2018-09-25T09:52:56.737Z,99898.42
2018-09-25T09:55:30.041Z,99903.23
2018-09-25T09:58:03.649Z,99908.19
2018-09-25T10:00:36.836Z,99915.79
2018-09-25T10:03:10.473Z,99920.06
2018-09-25T10:05:43.832Z,99917.77
2018-09-25T10:08:17.303Z,99915.92
2018-09-25T10:10:50.801Z,99912.60
2018-09-25T10:13:24.313Z,99922.62
2018-09-25T10:15:57.658Z,99924.44
2018-09-25T10:18:31.273Z,99927.87
2018-09-25T10:21:04.709Z,99930.70
2018-09-25T10:23:38.191Z,99923.03
2018-09-25T10:26:11.765Z,99930.11
2018-09-25T10:28:45.207Z,99923.39
2018-09-25T10:31:18.820Z,99923.02
2018-09-25T10:33:52.163Z,99922.45
2018-09-25T10:36:25.442Z,99920.92
2018-09-25T10:38:58.738Z,99922.25
2018-09-25T10:41:32.268Z,99916.20
2018-09-25T10:44:05.654Z,99917.41
2018-09-25T10:46:38.850Z,99921.97
2018-09-25T10:49:12.316Z,99916.94
2018-09-25T10:51:45.828Z,99919.98
2018-09-25T10:54:19.300Z,99926.09
2018-09-25T10:56:52.980Z,99921.19
2018-09-25T10:59:26.734Z,99936.66
2018-09-25T11:02:00.243Z,99927.59
2018-09-25T11:04:34.204Z,99928.73
2018-09-25T11:07:07.461Z,99919.26
2018-09-25T11:09:41.089Z,99919.56
2018-09-25T11:12:14.503Z,99922.46
2018-09-25T11:14:47.968Z,99928.11
2018-09-25T11:17:21.311Z,99922.27
2018-09-25T11:19:54.798Z,99923.98
2018-09-25T11:22:28.209Z,99924.34
2018-09-25T11:25:01.750Z,99917.78
2018-09-25T11:27:35.168Z,99921.88
2018-09-25T11:30:08.655Z,99923.68
2018-09-25T11:32:41.995Z,99916.23
2018-09-25T11:35:15.644Z,99907.73
2018-09-25T11:37:49.010Z,99906.98
2018-09-25T11:40:23.056Z,99914.73
2018-09-25T11:42:56.441Z,99909.92
2018-09-25T11:45:30.213Z,99906.44
2018-09-25T11:48:03.843Z,99901.74
2018-09-25T11:50:37.214Z,99904.41
2018-09-25T11:53:10.627Z,99897.07
2018-09-25T11:55:44.124Z,99898.25
2018-09-25T11:58:17.821Z,99904.84
2018-09-25T12:00:51.377Z,99898.22
2018-09-25T12:03:24.914Z,99898.65
2018-09-25T12:05:58.386Z,99904.99
2018-09-25T12:08:31.912Z,99902.86
2018-09-25T12:11:05.344Z,99903.34
2018-09-25T12:13:38.729Z,99901.82
2018-09-25T12:16:11.896Z,99901.73
2018-09-25T12:18:45.362Z,99903.75
2018-09-25T12:21:18.716Z,99907.38
2018-09-25T12:23:52.179Z,99903.61
2018-09-25T12:26:25.769Z,99909.16
2018-09-25T12:28:59.268Z,99907.36
2018-09-25T12:31:32.730Z,99906.73
2018-09-25T12:34:06.222Z,99911.67
2018-09-25T12:36:39.475Z,99914.61
2018-09-25T12:39:13.265Z,99917.24
2018-09-25T12:41:46.815Z,99903.24
2018-09-25T12:44:20.125Z,99907.36
2018-09-25T12:46:53.478Z,99903.67
2018-09-25T12:49:26.609Z,99901.57
2018-09-25T12:51:59.951Z,99900.73
2018-09-25T12:54:33.703Z,99902.13
2018-09-25T12:57:07.144Z,99904.59
2018-09-25T12:59:40.811Z,99903.29
2018-09-25T13:02:14.065Z,99902.85
2018-09-25T13:04:47.621Z,99899.23
2018-09-25T13:07:20.892Z,99897.64
2018-09-25T13:09:54.234Z,99898.25
2018-09-25T13:12:27.421Z,99904.45
2018-09-25T13:15:00.834Z,99908.33
2018-09-25T13:17:34.353Z,99908.52
2018-09-25T13:20:08.222Z,99905.16
2018-09-25T13:22:41.733Z,99902.53
2018-09-25T13:25:15.261Z,99900.88
2018-09-25T13:27:48.530Z,99897.69
2018-09-25T13:30:21.717Z,99895.02
2018-09-25T13:32:55.208Z,99894.95
2018-09-25T13:35:28.728Z,99882.84
2018-09-25T13:38:02.179Z,99888.34
2018-09-25T13:40:35.463Z,99887.50
2018-09-25T13:43:08.842Z,99887.56
2018-09-25T13:45:42.417Z,99878.89
2018-09-25T13:48:15.672Z,99873.73
2018-09-25T13:50:49.230Z,99866.70
2018-09-25T13:53:22.482Z,99875.14
2018-09-25T13:55:55.992Z,99866.67
2018-09-25T13:58:29.506Z,99869.13
2018-09-25T14:01:02.808Z,99874.64
2018-09-25T14:03:36.088Z,99874.30
2018-09-25T14:06:09.384Z,99875.80
2018-09-25T14:08:42.646Z,99861.52
2018-09-25T14:11:16.194Z,99867.84
2018-09-25T14:13:49.453Z,99872.19
2018-09-25T14:16:22.715Z,99868.73
2018-09-25T14:18:56.187Z,99856.68
2018-09-25T14:21:29.697Z,99865.98
2018-09-25T14:24:03.409Z,99876.16
2018-09-25T14:26:36.550Z,99876.31
2018-09-25T14:29:09.904Z,99866.36
2018-09-25T14:31:43.410Z,99865.45
2018-09-25T14:34:16.610Z,99868.59
2018-09-25T14:36:49.990Z,99860.35
2018-09-25T14:39:23.134Z,99861.27
2018-09-25T14:41:56.480Z,99858.06
2018-09-25T14:44:29.749Z,99863.34
2018-09-25T14:47:03.453Z,99857.55
2018-09-25T14:49:36.952Z,99864.98
2018-09-25T14:52:10.440Z,99852.36
2018-09-25T14:54:43.725Z,99850.22
2018-09-25T14:57:17.019Z,99844.84
2018-09-25T14:59:50.447Z,99849.88
2018-09-25T15:02:23.773Z,99850.19
2018-09-25T15:04:57.322Z,99857.31
2018-09-25T15:07:30.974Z,99856.08
2018-09-25T15:10:04.446Z,99853.66
2018-09-25T15:12:37.985Z,99852.96
2018-09-25T15:15:11.828Z,99841.02
2018-09-25T15:17:45.517Z,99839.39
2018-09-25T15:20:19.069Z,99841.25
2018-09-25T15:22:52.729Z,99832.80
2018-09-25T15:25:26.338Z,99834.03
2018-09-25T15:27:59.601Z,99835.19
2018-09-25T15:30:32.957Z,99831.38
2018-09-25T15:33:06.122Z,99836.91
2018-09-25T15:35:39.400Z,99834.80
2018-09-25T15:38:12.525Z,99838.41
2018-09-25T15:40:45.933Z,99841.16
2018-09-25T15:43:19.211Z,99840.87
2018-09-25T15:45:52.746Z,99836.32
2018-09-25T15:48:25.927Z,99834.05
2018-09-25T15:50:59.110Z,99843.20
2018-09-25T15:53:32.324Z,99838.05
2018-09-25T15:56:05.511Z,99838.59
2018-09-25T15:58:38.732Z,99842.23
2018-09-25T16:01:11.940Z,99841.20
2018-09-25T16:03:45.143Z,99854.58
2018-09-25T16:06:18.368Z,99860.34
2018-09-25T16:08:51.558Z,99860.33
2018-09-25T16:11:25.059Z,99856.44
2018-09-25T16:13:58.525Z,99857.86
2018-09-25T16:16:31.776Z,99856.21
2018-09-25T16:19:04.973Z,99859.14
2018-09-25T16:21:38.315Z,99870.25
2018-09-25T16:24:11.434Z,99873.66
2018-09-25T16:26:44.749Z,99880.02
2018-09-25T16:29:18.201Z,99880.98
2018-09-25T16:31:51.635Z,99878.92
2018-09-25T16:34:24.862Z,99883.02
2018-09-25T16:36:58.040Z,99894.55
2018-09-25T16:39:31.222Z,99885.27
2018-09-25T16:42:04.532Z,99882.12
2018-09-25T16:44:37.877Z,99889.11
2018-09-25T16:47:11.070Z,99899.55
2018-09-25T16:49:44.241Z,99891.41
2018-09-25T16:52:17.536Z,99900.59
2018-09-25T16:54:50.750Z,99893.77
2018-09-25T16:57:24.086Z,99893.26
2018-09-25T16:59:57.313Z,99895.97
2018-09-25T17:02:30.541Z,99901.05
2018-09-25T17:05:03.781Z,99908.73
2018-09-25T17:07:37.048Z,99903.81
2018-09-25T17:10:10.489Z,99911.66
2018-09-25T17:12:43.958Z,99908.33
2018-09-25T17:15:17.226Z,99900.09
2018-09-25T17:17:50.408Z,99896.86
2018-09-25T17:20:23.605Z,99895.80
2018-09-25T17:22:56.800Z,99899.11
2018-09-25T17:25:30.208Z,99913.76
2018-09-25T17:28:03.547Z,99915.81
2018-09-25T17:30:36.817Z,99907.54
2018-09-25T17:33:10.107Z,99910.10
2018-09-25T17:35:43.313Z,99925.18
2018-09-25T17:38:16.480Z,99936.23
2018-09-25T17:40:49.750Z,99931.45
2018-09-25T17:43:22.930Z,99930.20
2018-09-25T17:45:56.131Z,99931.95
2018-09-25T17:48:29.417Z,99923.92
2018-09-25T17:51:03.108Z,99939.49
2018-09-25T17:53:36.756Z,99939.84
2018-09-25T17:56:10.451Z,99944.73
2018-09-25T17:58:43.732Z,99948.41
2018-09-25T18:01:17.229Z,99951.48
2018-09-25T18:03:50.500Z,99955.34
2018-09-25T18:06:23.746Z,99951.85
2018-09-25T18:08:56.926Z,99952.56
2018-09-25T18:11:30.086Z,99958.17
2018-09-25T18:14:03.399Z,99959.84
2018-09-25T18:16:36.645Z,99966.44
2018-09-25T18:19:09.927Z,99968.49
2018-09-25T18:21:43.319Z,99965.03
2018-09-25T18:24:16.853Z,99964.59
2018-09-25T18:26:54.604Z,99971.37
2018-09-25T18:29:27.895Z,99971.70
2018-09-25T18:32:01.134Z,99970.35
2018-09-25T18:34:34.647Z,99971.39
2018-09-25T18:37:07.849Z,99978.39
2018-09-25T18:39:41.152Z,99975.66
2018-09-25T18:42:14.554Z,99978.28
2018-09-25T18:44:47.845Z,99983.09
2018-09-25T18:47:21.097Z,99990.82
2018-09-25T18:49:54.288Z,99987.33
2018-09-25T18:52:27.580Z,99990.93
2018-09-25T18:55:00.804Z,99988.16
2018-09-25T18:57:34.014Z,99992.20
2018-09-25T19:00:07.096Z,99987.72
2018-09-25T19:02:40.348Z,99982.39
2018-09-25T19:05:13.760Z,99975.12
2018-09-25T19:07:47.137Z,99974.52
2018-09-25T19:10:20.449Z,99981.84
2018-09-25T19:12:53.668Z,99986.23
2018-09-25T19:15:26.924Z,99988.86
2018-09-25T19:18:00.134Z,99995.39
2018-09-25T19:20:33.420Z,99986.16
2018-09-25T19:23:06.654Z,99987.56
2018-09-25T19:25:39.829Z,99988.20
2018-09-25T19:28:13.147Z,99992.16
2018-09-25T19:30:46.266Z,99990.23
2018-09-25T19:33:19.686Z,100005.69
2018-09-25T19:35:52.981Z,100006.13
2018-09-25T19:38:33.561Z,100004.17
2018-09-25T19:41:06.893Z,99999.05
2018-09-25T19:43:40.232Z,99997.90
2018-09-25T19:46:13.418Z,99999.72
2018-09-25T19:48:46.564Z,100000.76
2018-09-25T19:51:19.729Z,99999.58
2018-09-25T19:53:53.019Z,99995.88
2018-09-25T19:56:26.137Z,99993.91
2018-09-25T19:58:59.442Z,99988.81
2018-09-25T20:01:32.811Z,99989.41
2018-09-25T20:04:06.092Z,99983.69
2018-09-25T20:06:39.326Z,99981.72
2018-09-25T20:09:13.866Z,99978.72
2018-09-25T20:11:47.566Z,99976.58
2018-09-25T20:14:20.849Z,99977.38
2018-09-25T20:16:54.025Z,99975.99
2018-09-25T20:19:27.384Z,99978.80
2018-09-25T20:22:00.716Z,99977.62
2018-09-25T20:24:34.016Z,99974.47
2018-09-25T20:27:07.282Z,99974.90
2018-09-25T20:29:40.561Z,99980.03
2018-09-25T20:32:13.766Z,99979.05
2018-09-25T20:34:47.033Z,99979.69
2018-09-25T20:37:20.355Z,99981.85
2018-09-25T20:39:53.917Z,99986.39
2018-09-25T20:42:27.557Z,99985.80
2018-09-25T20:45:01.242Z,99985.25
2018-09-25T20:47:34.564Z,99990.81
2018-09-25T20:50:08.060Z,99990.86
2018-09-25T20:52:41.278Z,99993.85
2018-09-25T20:55:15.012Z,99990.34
2018-09-25T20:57:48.315Z,99984.81
2018-09-25T21:00:21.654Z,99987.97
2018-09-25T21:02:54.929Z,99990.53
2018-09-25T21:05:28.482Z,99993.45
2018-09-25T21:08:01.642Z,99987.73
2018-09-25T21:10:34.864Z,99980.83
2018-09-25T21:13:08.064Z,99986.16
2018-09-25T21:15:41.845Z,99991.06
2018-09-25T21:18:14.921Z,99994.78
2018-09-25T21:20:48.091Z,99994.94
2018-09-25T21:23:21.242Z,99992.38
2018-09-25T21:25:54.449Z,99987.25
2018-09-25T21:28:27.780Z,99992.41
2018-09-25T21:31:01.034Z,99992.41
2018-09-25T21:33:34.237Z,99992.05
2018-09-25T21:36:07.577Z,99980.02
2018-09-25T21:38:40.734Z,99982.22
2018-09-25T21:41:14.020Z,99981.44
2018-09-25T21:43:47.273Z,99983.23
2018-09-25T21:46:20.525Z,99978.53
2018-09-25T21:48:53.858Z,99970.28
2018-09-25T21:51:27.318Z,99979.38
2018-09-25T21:54:00.350Z,99978.58
2018-09-25T21:56:33.593Z,99984.10
2018-09-25T21:59:06.676Z,99972.50
2018-09-25T22:01:39.925Z,99975.43
2018-09-25T22:04:13.181Z,99975.03
2018-09-25T22:06:46.494Z,99975.20
2018-09-25T22:09:19.728Z,99972.48
2018-09-25T22:11:52.945Z,99977.59
2018-09-25T22:14:26.086Z,99971.54
2018-09-25T22:16:59.424Z,99978.83
2018-09-25T22:19:32.616Z,99976.86
2018-09-25T22:22:05.806Z,99982.17
2018-09-25T22:24:39.102Z,99967.78
2018-09-25T22:27:12.375Z,99964.85
2018-09-25T22:29:45.841Z,99961.70
2018-09-25T22:39:28.144Z,99970.41
2018-09-25T22:42:01.619Z,99973.53
2018-09-25T22:44:34.944Z,99970.80
2018-09-25T22:47:08.108Z,99975.55
2018-09-25T22:49:41.351Z,99971.23
2018-09-25T22:52:14.564Z,99959.23
2018-09-25T22:54:47.796Z,99947.80
2018-09-25T22:57:21.141Z,99943.47
2018-09-25T22:59:54.341Z,99945.05
2018-09-25T23:02:27.694Z,99949.97
2018-09-25T23:05:01.008Z,99952.17
2018-09-25T23:07:34.521Z,99947.83
2018-09-25T23:10:07.776Z,99945.66
2018-09-25T23:12:41.049Z,99940.56
2018-09-25T23:15:14.284Z,99925.98
2018-09-25T23:17:47.573Z,99923.05
2018-09-25T23:20:20.869Z,99926.41
2018-09-25T23:22:54.124Z,99936.23
2018-09-25T23:25:27.448Z,99942.52
2018-09-25T23:28:00.659Z,99948.84
2018-09-25T23:30:33.982Z,99943.33
2018-09-25T23:33:07.181Z,99939.98
2018-09-25T23:35:40.467Z,99931.91
2018-09-25T23:38:13.735Z,99923.66
2018-09-25T23:42:51.877Z,99919.34
2018-09-25T23:45:25.041Z,99913.84
2018-09-25T23:50:01.340Z,99905.38
2018-09-25T23:52:42.763Z,99897.72
2018-09-25T23:55:14.003Z,99896.55
2018-09-25T23:57:59.423Z,99887.69
